Current Weather

Aeroparque Jorge Newbery

Buenos Aires, Argentina (SABE)

Report from: Tuesday, July 16, 2024 5:00 AM -03
Current time: Tuesday, July 16, 2024 5:26 AM -03

Nearby weather – Weather history – Daily summaries
Weather forecast

Temperature10.0°C (50.0°F)
Wind chill8.2°C (46.7°F)
Dew point7.0°C (44.6°F)
Winds 7 kts (3.6 m/s, 8.1 mph) Vrb
Winds variableWinds variable from North (350°) to Northeast (50°)
Clouds Sky clear
Altimeter30.33 in.Hg (1027 mB)
Relative humidity82 %
Density altitude-918 ft. (-280 m)
Remarks Ceiling and visibility OK
Corrected report
No significant changes expected in the next two hours
Flight conditions Visual Meteorological Conditions
Raw dataCOR SABE 160800Z 01007KT 350V050 CAVOK 10/07 Q1027 NOSIG
An error has occurred. This application may no longer respond until reloaded. Reload 🗙